Time;durP1;ratioP1;P1;durP2;ratioP2;P2;SDS_P1;SDS_P2;PMS_P1;PMS_P2;Temp;Humidity;BMP_temperature;BMP_pressure;BME280_temperature;BME280_humidity;BME280_pressure;Samples;Min_cycle;Max_cycle;Signal;HPM_P1;HPM_P2
2022/05/13 00:01:37;;;;;;;4.45;2.33;;;;;;;21.93;51.94;99315.28;4377840;32;34865;-75
2022/05/13 00:04:06;;;;;;;5.12;2.50;;;;;;;22.13;52.54;99312.34;4379231;32;33603;-75
2022/05/13 00:06:35;;;;;;;4.28;2.40;;;;;;;22.46;50.24;99311.28;4379303;32;33612;-75
2022/05/13 00:09:03;;;;;;;2.78;2.00;;;;;;;22.30;51.73;99308.69;4364952;32;33282;-75
2022/05/13 00:11:32;;;;;;;3.33;2.20;;;;;;;21.83;52.16;99324.72;4364822;32;35823;-75
2022/05/13 00:13:59;;;;;;;5.40;2.00;;;;;;;22.01;52.18;99315.72;4377280;32;34446;-75
2022/05/13 00:16:27;;;;;;;4.22;2.17;;;;;;;21.99;52.14;99317.59;4379088;32;34313;-75
2022/05/13 00:18:55;;;;;;;3.42;1.90;;;;;;;21.15;54.02;99320.53;4377425;32;33918;-75
2022/05/13 00:21:23;;;;;;;3.78;2.08;;;;;;;21.27;53.69;99330.44;4389491;32;35065;-75
2022/05/13 00:23:51;;;;;;;4.80;1.92;;;;;;;21.92;50.48;99340.97;4378327;32;34473;-75
2022/05/13 00:26:19;;;;;;;2.22;1.25;;;;;;;22.17;48.13;99326.28;4379199;32;33602;-75
2022/05/13 00:28:47;;;;;;;4.10;1.80;;;;;;;22.52;47.06;99332.16;4376935;32;34158;-76
2022/05/13 00:31:15;;;;;;;2.65;1.75;;;;;;;22.36;46.80;99339.34;4377988;32;34939;-75
2022/05/13 00:33:43;;;;;;;4.22;1.87;;;;;;;22.39;47.50;99335.63;4377479;32;34545;-75
2022/05/13 00:36:10;;;;;;;4.35;2.03;;;;;;;22.68;46.67;99325.94;4379124;32;33422;-76
2022/05/13 00:38:38;;;;;;;3.62;1.58;;;;;;;22.65;45.53;99326.12;4378212;32;34760;-76
2022/05/13 00:41:06;;;;;;;1.92;1.42;;;;;;;22.79;46.21;99330.56;4378976;32;35075;-75
2022/05/13 00:43:48;;;;;;;2.92;1.73;;;;;;;22.85;45.48;99330.19;4378144;32;34510;-75
2022/05/13 00:46:16;;;;;;;4.32;1.92;;;;;;;23.17;44.00;99346.81;4389433;32;33430;-76
2022/05/13 00:48:44;;;;;;;3.10;1.60;;;;;;;22.85;45.21;99332.84;4378150;32;33964;-76
2022/05/13 00:51:15;;;;;;;3.62;2.03;;;;;;;23.20;44.30;99337.78;4364776;32;35115;-74
2022/05/13 00:53:44;;;;;;;5.40;1.80;;;;;;;23.12;44.67;99332.97;4389296;32;34574;-75
2022/05/13 00:56:12;;;;;;;3.40;1.80;;;;;;;23.31;44.15;99339.78;4378039;32;33751;-75
2022/05/13 00:58:43;;;;;;;2.42;1.70;;;;;;;23.09;45.07;99330.50;4363709;32;34015;-75
2022/05/13 01:01:11;;;;;;;2.58;1.75;;;;;;;23.28;45.21;99324.91;4364799;32;34212;-75
2022/05/13 01:03:39;;;;;;;3.40;1.98;;;;;;;23.24;44.46;99333.97;4377821;32;34515;-75
2022/05/13 01:06:12;;;;;;;3.67;1.87;;;;;;;23.40;44.77;99328.53;4376212;32;32345;-75
2022/05/13 01:08:41;;;;;;;4.45;2.00;;;;;;;23.38;43.96;99335.78;4372662;32;33886;-75
2022/05/13 01:11:11;;;;;;;6.32;1.95;;;;;;;23.10;44.75;99332.19;4378896;32;34944;-75
2022/05/13 01:13:47;;;;;;;3.80;1.80;;;;;;;23.03;44.71;99323.75;4376839;32;34510;-75
2022/05/13 01:16:14;;;;;;;4.25;1.80;;;;;;;23.43;44.32;99315.06;4389926;32;33494;-75
2022/05/13 01:18:43;;;;;;;2.40;1.77;;;;;;;23.15;44.83;99316.81;4375878;32;34665;-75
2022/05/13 01:21:15;;;;;;;3.58;1.98;;;;;;;23.17;44.99;99308.75;4378752;32;35760;-75
2022/05/13 01:23:44;;;;;;;3.80;2.00;;;;;;;23.17;45.11;99317.59;4377005;32;34523;-75
2022/05/13 01:26:19;;;;;;;3.45;1.73;;;;;;;23.24;44.76;99315.37;4378821;32;33437;-76
2022/05/13 01:28:50;;;;;;;2.95;1.70;;;;;;;23.22;44.69;99315.47;4378149;32;34793;-75
2022/05/13 01:31:30;;;;;;;3.40;1.90;;;;;;;23.22;45.11;99319.94;4378707;32;35031;-75
2022/05/13 01:34:00;;;;;;;2.47;1.80;;;;;;;22.86;45.73;99313.31;4377962;32;34478;-75
2022/05/13 01:36:29;;;;;;;4.10;2.00;;;;;;;22.83;45.66;99313.50;4377565;32;33377;-75
2022/05/13 01:38:58;;;;;;;6.05;1.85;;;;;;;22.90;45.45;99313.00;4363619;32;34110;-75
2022/05/13 01:41:26;;;;;;;3.58;1.83;;;;;;;23.18;45.13;99308.66;4363560;32;35001;-75
2022/05/13 01:43:55;;;;;;;3.70;2.00;;;;;;;22.93;45.99;99325.25;4364498;32;35083;-75
2022/05/13 01:46:23;;;;;;;3.03;1.98;;;;;;;23.15;45.47;99319.47;4365575;32;33730;-75
2022/05/13 01:48:52;;;;;;;2.75;1.80;;;;;;;23.05;45.65;99307.75;4364396;32;34813;-75
2022/05/13 01:51:20;;;;;;;3.58;2.37;;;;;;;22.74;46.75;99309.63;4389936;32;35877;-76
2022/05/13 01:53:48;;;;;;;2.95;1.87;;;;;;;23.08;45.98;99308.41;4377643;32;34604;-75
2022/05/13 01:56:16;;;;;;;3.60;1.80;;;;;;;23.01;46.04;99309.72;4377756;32;32814;-75
2022/05/13 01:58:45;;;;;;;3.37;2.00;;;;;;;22.51;46.88;99303.06;4370751;32;34866;-75
2022/05/13 02:01:13;;;;;;;3.20;1.92;;;;;;;22.81;46.66;99305.63;4376749;32;36157;-75
2022/05/13 02:03:44;;;;;;;1.87;1.37;;;;;;;22.23;48.28;99303.84;4377562;32;34593;-75
2022/05/13 02:06:20;;;;;;;3.15;1.70;;;;;;;22.38;48.09;99305.59;4353414;32;34232;-75
2022/05/13 02:08:49;;;;;;;4.73;1.90;;;;;;;22.19;48.53;99307.63;4377534;32;33983;-75
2022/05/13 02:11:18;;;;;;;3.37;2.00;;;;;;;22.50;47.79;99298.69;4364264;32;35007;-74
2022/05/13 02:13:46;;;;;;;3.03;2.05;;;;;;;22.23;48.60;99303.84;4377726;32;35358;-75
2022/05/13 02:16:15;;;;;;;2.75;1.60;;;;;;;22.11;48.67;99303.62;4368332;32;33356;-73
2022/05/13 02:18:43;;;;;;;2.20;1.70;;;;;;;22.33;48.23;99299.72;4377005;32;33955;-74
2022/05/13 02:21:12;;;;;;;2.35;1.65;;;;;;;22.10;48.80;99299.25;4376866;32;35924;-74
2022/05/13 02:23:41;;;;;;;4.47;2.12;;;;;;;22.02;49.31;99309.44;4377729;32;34358;-75
2022/05/13 02:26:11;;;;;;;5.72;2.05;;;;;;;21.70;50.20;99303.38;4377344;32;34332;-74
2022/05/13 02:28:39;;;;;;;2.90;1.77;;;;;;;21.96;49.19;99300.06;4364403;32;33130;-73
2022/05/13 02:31:08;;;;;;;2.92;1.80;;;;;;;21.62;50.23;99298.53;4378157;32;35971;-74
2022/05/13 02:33:36;;;;;;;3.30;2.10;;;;;;;21.73;50.18;99304.03;4363755;32;35301;-74
2022/05/13 02:36:06;;;;;;;4.53;2.20;;;;;;;21.99;49.68;99299.03;4364129;32;33703;-74
2022/05/13 02:38:35;;;;;;;3.92;2.03;;;;;;;21.94;50.02;99298.44;4377234;32;33461;-74
2022/05/13 02:41:12;;;;;;;3.70;1.92;;;;;;;22.33;49.29;99291.75;4364626;32;34898;-74
2022/05/13 02:43:52;;;;;;;5.45;1.98;;;;;;;22.12;49.99;99286.75;4376308;32;35184;-74
2022/05/13 02:46:24;;;;;;;5.93;2.70;;;;;;;22.32;50.00;99298.00;4364656;32;34216;-73
2022/05/13 02:48:52;;;;;;;3.37;1.92;;;;;;;21.83;51.28;99301.72;4363464;32;34782;-86
2022/05/13 02:51:20;;;;;;;3.12;2.08;;;;;;;21.88;51.07;99299.66;4377920;32;35135;-75
2022/05/13 02:53:48;;;;;;;3.85;2.35;;;;;;;21.62;51.80;99303.81;4377330;32;35014;-74
2022/05/13 02:56:17;;;;;;;2.95;2.15;;;;;;;21.57;51.40;99311.16;4377194;32;33463;-75
2022/05/13 02:58:45;;;;;;;3.87;2.17;;;;;;;21.88;51.05;99312.94;4377073;32;33898;-78
2022/05/13 03:01:15;;;;;;;3.53;2.17;;;;;;;21.58;51.45;99318.16;4388043;32;35001;-73
2022/05/13 03:03:45;;;;;;;4.78;2.60;;;;;;;21.74;51.43;99319.03;4376912;32;33595;-84
2022/05/13 03:06:14;;;;;;;5.60;3.37;;;;;;;21.66;52.02;99326.53;4377871;32;34438;-88
2022/05/13 03:08:41;;;;;;;4.45;2.42;;;;;;;21.63;51.82;99326.72;4376908;32;33823;-73
2022/05/13 03:11:10;;;;;;;3.53;2.20;;;;;;;21.63;51.78;99324.06;4376448;32;34524;-75
2022/05/13 03:13:38;;;;;;;5.20;2.55;;;;;;;21.77;51.29;99329.41;4363501;32;34063;-73
2022/05/13 03:16:08;;;;;;;4.50;2.40;;;;;;;21.49;52.32;99338.06;4375745;32;33185;-74
2022/05/13 03:18:40;;;;;;;4.47;2.72;;;;;;;21.56;52.41;99335.94;4376925;32;34679;-84
2022/05/13 03:21:08;;;;;;;3.58;2.00;;;;;;;21.00;53.96;99344.25;4364488;32;34231;-86
2022/05/13 03:23:38;;;;;;;4.70;2.62;;;;;;;21.00;54.42;99343.38;4387577;32;34471;-85
2022/05/13 03:26:05;;;;;;;3.65;2.20;;;;;;;20.78;54.92;99348.97;4377416;32;33574;-88
2022/05/13 03:28:33;;;;;;;5.30;2.20;;;;;;;21.14;54.07;99345.28;4376767;32;34934;-87
2022/05/13 03:31:01;;;;;;;5.97;2.47;;;;;;;21.30;53.16;99351.47;4365162;32;34269;-73
2022/05/13 03:33:29;;;;;;;3.05;2.20;;;;;;;21.36;52.97;99351.13;4365177;32;34468;-75
2022/05/13 03:35:57;;;;;;;3.92;2.22;;;;;;;21.18;53.34;99352.16;4378295;32;34144;-75
2022/05/13 03:38:26;;;;;;;3.90;2.35;;;;;;;21.10;53.90;99355.19;4378362;32;33931;-76
2022/05/13 03:40:53;;;;;;;5.55;2.50;;;;;;;20.94;54.34;99360.44;4379588;32;35063;-75
2022/05/13 03:43:21;;;;;;;4.97;2.28;;;;;;;20.85;54.27;99355.66;4378688;32;35197;-73
2022/05/13 03:45:49;;;;;;;5.30;2.83;;;;;;;20.87;54.45;99358.22;4378486;32;33621;-75
2022/05/13 03:48:17;;;;;;;4.57;3.03;;;;;;;21.23;53.41;99366.00;4364238;32;33162;-73
2022/05/13 03:50:45;;;;;;;3.78;2.22;;;;;;;21.12;54.10;99374.50;4379477;32;35180;-75
2022/05/13 03:53:13;;;;;;;3.50;2.55;;;;;;;21.16;54.17;99383.13;4377023;32;35048;-74
2022/05/13 03:55:41;;;;;;;6.07;2.17;;;;;;;21.37;53.57;99381.09;4378129;32;33326;-74
2022/05/13 03:58:09;;;;;;;4.28;2.40;;;;;;;21.30;53.84;99380.62;4389735;32;33922;-76
2022/05/13 04:00:38;;;;;;;6.40;2.75;;;;;;;21.32;53.79;99386.69;4379286;32;35868;-74
2022/05/13 04:03:06;;;;;;;11.20;3.10;;;;;;;20.97;54.71;99389.41;4364295;32;35158;-75
2022/05/13 04:11:07;;;;;;;4.47;2.58;;;;;;;20.63;57.21;99377.94;4378580;32;35203;-74
2022/05/13 04:16:22;;;;;;;7.82;3.00;;;;;;;20.50;58.31;99381.25;4379214;32;34343;-75
2022/05/13 04:18:51;;;;;;;3.97;2.55;;;;;;;20.57;58.03;99377.38;4376291;32;34144;-75
2022/05/13 04:21:21;;;;;;;5.40;2.83;;;;;;;20.76;58.09;99394.03;4379250;32;35629;-75
2022/05/13 04:23:51;;;;;;;4.15;2.65;;;;;;;20.55;59.83;99389.81;4378286;32;34798;-75
2022/05/13 04:26:19;;;;;;;5.57;2.67;;;;;;;20.49;60.90;99385.72;4364924;32;33413;-74
2022/05/13 04:28:49;;;;;;;4.45;2.78;;;;;;;20.32;62.43;99383.06;4377126;32;34806;-76
2022/05/13 04:31:20;;;;;;;6.20;3.30;;;;;;;20.30;62.37;99395.50;4365548;32;34909;-74
2022/05/13 04:33:49;;;;;;;7.22;2.75;;;;;;;19.98;64.16;99397.94;4365149;32;34524;-73
2022/05/13 04:36:18;;;;;;;6.22;2.78;;;;;;;19.96;64.82;99402.44;4382603;32;33479;-74
2022/05/13 04:38:46;;;;;;;10.20;3.28;;;;;;;20.41;63.69;99399.31;4374170;32;34709;-73
2022/05/13 04:44:01;;;;;;;4.65;2.65;;;;;;;19.81;65.18;99399.59;4378480;32;34448;-75
2022/05/13 04:46:30;;;;;;;4.70;2.67;;;;;;;19.69;65.91;99394.88;4365296;32;33253;-74
2022/05/13 04:48:59;;;;;;;4.32;2.72;;;;;;;19.84;65.42;99391.53;4378349;32;34765;-75
2022/05/13 04:51:27;;;;;;;4.75;3.45;;;;;;;20.08;65.07;99391.25;4364123;32;35856;-74
2022/05/13 04:53:56;;;;;;;5.53;2.70;;;;;;;20.00;65.39;99394.28;4378748;32;35283;-75
2022/05/13 04:56:26;;;;;;;6.43;2.97;;;;;;;19.82;65.06;99392.56;4378975;32;33588;-74
2022/05/13 04:58:54;;;;;;;5.03;3.12;;;;;;;19.84;65.87;99393.31;4378529;32;33847;-78
2022/05/13 05:01:22;;;;;;;7.47;3.30;;;;;;;19.95;65.64;99390.16;4378243;32;35880;-77
2022/05/13 05:03:50;;;;;;;8.45;3.58;;;;;;;20.04;65.68;99400.28;4388789;32;34811;-76
2022/05/13 05:06:19;;;;;;;4.65;3.20;;;;;;;19.74;66.61;99395.53;4365644;32;34455;-77
2022/05/13 05:08:48;;;;;;;6.65;3.70;;;;;;;20.00;66.21;99411.94;4377147;32;33979;-80
2022/05/13 05:11:16;;;;;;;5.40;3.50;;;;;;;19.79;67.06;99401.47;4365205;32;34973;-75
2022/05/13 05:13:50;;;;;;;6.90;3.47;;;;;;;19.61;68.23;99407.59;4377999;32;34899;-76
2022/05/13 05:16:22;;;;;;;4.85;3.22;;;;;;;19.70;67.69;99417.72;4378669;32;32627;-77
2022/05/13 05:18:51;;;;;;;4.45;3.22;;;;;;;19.63;68.48;99426.88;4364942;32;33834;-77
2022/05/13 05:21:18;;;;;;;5.97;3.50;;;;;;;20.16;67.16;99426.12;4378939;32;34910;-77
2022/05/13 05:23:48;;;;;;;4.82;3.08;;;;;;;20.33;66.41;99424.41;4374530;32;34413;-76
2022/05/13 05:26:16;;;;;;;7.60;3.28;;;;;;;20.30;66.42;99425.44;4378822;32;34168;-76
2022/05/13 05:28:44;;;;;;;4.85;3.00;;;;;;;20.31;65.98;99431.59;4377021;32;34669;-75
2022/05/13 05:31:12;;;;;;;5.03;3.28;;;;;;;20.27;65.87;99423.78;4389957;32;35908;-77
2022/05/13 05:33:42;;;;;;;5.82;3.22;;;;;;;20.31;66.05;99432.44;4377585;32;34444;-77
2022/05/13 06:39:19;;;;;;;6.07;2.67;;;;;;;24.21;52.69;99468.72;4590682;27;20080;-73
2022/05/13 06:41:47;;;;;;;5.47;2.15;;;;;;;24.36;51.09;99467.72;4323308;33;35981;-71
2022/05/13 06:44:18;;;;;;;3.70;2.33;;;;;;;24.31;52.43;99469.84;4328375;33;34590;-75
2022/05/13 06:46:47;;;;;;;3.50;2.15;;;;;;;24.55;51.54;99471.88;4318715;33;33506;-73
2022/05/13 06:49:15;;;;;;;5.30;2.28;;;;;;;25.01;50.23;99470.56;4329621;33;33838;-89
2022/05/13 06:51:44;;;;;;;5.30;2.67;;;;;;;25.64;48.69;99476.84;4331300;33;35855;-73
2022/05/13 06:54:12;;;;;;;5.85;2.50;;;;;;;25.56;48.10;99473.91;4328418;33;35275;-73
2022/05/13 06:56:42;;;;;;;2.83;1.98;;;;;;;25.61;48.19;99474.44;4331151;33;34236;-74
2022/05/13 06:59:11;;;;;;;5.93;2.10;;;;;;;24.98;49.18;99475.13;4314788;33;32936;-85
2022/05/13 07:01:42;;;;;;;3.75;2.15;;;;;;;24.95;47.80;99486.03;4317583;33;35540;-73
2022/05/13 07:04:10;;;;;;;3.42;2.08;;;;;;;24.35;50.27;99494.44;4316176;33;35200;-74
2022/05/13 07:06:39;;;;;;;4.20;2.17;;;;;;;24.61;49.26;99487.44;4315764;33;34438;-71
2022/05/13 07:09:08;;;;;;;4.87;2.40;;;;;;;23.80;50.90;99490.84;4316957;33;33984;-72
2022/05/13 07:11:36;;;;;;;3.53;2.15;;;;;;;23.96;51.63;99490.75;4328675;33;35067;-73
2022/05/13 07:14:04;;;;;;;4.37;2.10;;;;;;;23.81;52.70;99487.28;4313963;33;34278;-73
2022/05/13 07:16:33;;;;;;;2.87;1.90;;;;;;;23.42;53.53;99479.00;4318006;33;33467;-74
2022/05/13 07:19:06;;;;;;;3.37;2.17;;;;;;;23.38;53.71;99482.75;4315422;33;34887;-73
2022/05/13 07:21:36;;;;;;;4.20;2.53;;;;;;;23.61;52.62;99480.50;4329323;33;35291;-74
2022/05/13 07:24:05;;;;;;;3.25;2.10;;;;;;;24.07;51.83;99487.41;4315460;33;34444;-72
2022/05/13 07:26:33;;;;;;;5.47;2.12;;;;;;;24.33;50.89;99491.88;4317378;33;34250;-74
2022/05/13 07:29:04;;;;;;;3.70;2.30;;;;;;;24.63;50.99;99480.19;4327756;33;34780;-73
2022/05/13 07:31:34;;;;;;;7.75;3.35;;;;;;;24.67;53.76;99486.16;4317125;33;35854;-73
2022/05/13 07:34:02;;;;;;;4.22;2.42;;;;;;;25.58;49.15;99485.31;4315555;33;35377;-73
2022/05/13 07:36:30;;;;;;;4.12;1.85;;;;;;;25.39;50.56;99483.94;4318705;33;34272;-73
2022/05/13 07:41:46;;;;;;;4.30;2.12;;;;;;;26.14;47.70;99485.75;4326170;33;34928;-74
2022/05/13 07:44:14;;;;;;;4.53;2.28;;;;;;;25.81;48.03;99495.19;4316632;33;34585;-73
2022/05/13 07:46:44;;;;;;;4.37;1.95;;;;;;;26.65;45.18;99495.38;4316858;33;34364;-73
2022/05/13 07:49:15;;;;;;;4.30;1.80;;;;;;;25.86;47.99;99494.88;4316375;33;34817;-73
2022/05/13 07:51:44;;;;;;;6.82;2.45;;;;;;;25.91;48.32;99490.06;4318147;33;36013;-73
2022/05/13 07:54:12;;;;;;;4.32;2.58;;;;;;;25.96;47.85;99508.41;4315447;33;34572;-73
2022/05/13 07:56:40;;;;;;;3.75;2.00;;;;;;;25.49;49.75;99506.31;4318372;33;33750;-72
2022/05/13 07:59:08;;;;;;;4.18;2.00;;;;;;;26.00;47.40;99512.59;4314609;33;34113;-73
2022/05/13 08:01:36;;;;;;;5.18;1.80;;;;;;;25.21;48.02;99511.84;4316604;33;35103;-72
2022/05/13 08:04:04;;;;;;;2.97;1.85;;;;;;;25.59;46.11;99516.34;4315862;33;34565;-73
2022/05/13 08:06:32;;;;;;;3.03;1.98;;;;;;;25.32;48.91;99511.97;4303450;33;33276;-74
2022/05/13 08:09:01;;;;;;;3.50;1.77;;;;;;;24.90;47.31;99512.13;4302394;33;33813;-73
2022/05/13 08:11:30;;;;;;;7.62;2.10;;;;;;;24.51;50.17;99519.13;4314145;33;35143;-73
2022/05/13 08:14:04;;;;;;;4.62;2.20;;;;;;;24.62;49.20;99521.09;4326229;33;35104;-73
2022/05/13 08:16:34;;;;;;;3.65;2.25;;;;;;;23.91;51.82;99519.44;4314312;33;32102;-73
2022/05/13 08:19:05;;;;;;;4.45;2.05;;;;;;;24.13;51.02;99524.25;4316748;33;34071;-72
2022/05/13 08:21:33;;;;;;;3.75;1.83;;;;;;;23.85;51.72;99518.03;4290506;33;35087;-74
2022/05/13 08:24:02;;;;;;;4.53;2.22;;;;;;;23.61;52.72;99526.56;4290555;33;34348;-73
2022/05/13 08:26:30;;;;;;;5.70;1.90;;;;;;;23.49;52.90;99524.66;4301780;33;33567;-73
2022/05/13 08:29:00;;;;;;;2.85;1.73;;;;;;;23.30;51.81;99532.88;4289680;33;33942;-72
2022/05/13 08:31:29;;;;;;;5.45;2.00;;;;;;;23.42;51.33;99529.50;4316220;33;34773;-74
2022/05/13 08:33:57;;;;;;;6.37;1.95;;;;;;;23.54;52.10;99524.34;4315816;33;34461;-74
2022/05/13 08:36:25;;;;;;;5.72;2.08;;;;;;;23.36;52.59;99516.56;4318628;33;34792;-72
2022/05/13 08:38:54;;;;;;;4.87;1.98;;;;;;;23.45;51.72;99520.47;4320009;33;33994;-72
2022/05/13 08:41:28;;;;;;;3.80;2.10;;;;;;;23.46;53.07;99522.19;4318387;33;35168;-72
2022/05/13 08:44:03;;;;;;;3.70;2.08;;;;;;;23.96;53.66;99520.00;4306918;33;35281;-72
2022/05/13 08:47:09;;;;;;;3.22;2.10;;;;;;;24.82;50.96;99517.09;4292976;33;33282;-76
2022/05/13 08:50:02;;;;;;;2.47;1.85;;;;;;;24.30;51.04;99526.69;4303670;33;34734;-74
2022/05/13 08:55:53;;;;;;;3.72;1.77;;;;;;;24.85;50.59;99524.91;4304125;33;34601;-78
2022/05/13 08:58:59;;;;;;;3.97;2.28;;;;;;;25.21;49.31;99517.16;4294425;33;33369;-84
2022/05/13 09:01:38;;;;;;;4.30;2.55;;;;;;;25.03;50.58;99514.81;4305189;33;34053;-77
2022/05/13 09:04:14;;;;;;;3.85;2.10;;;;;;;25.49;49.05;99509.00;4304164;33;34258;-74
2022/05/13 09:06:44;;;;;;;;;;;;;;;25.73;50.11;99508.22;4305496;33;33823;-77
2022/05/13 09:09:12;;;;;;;5.03;2.60;;;;;;;26.09;48.05;99509.25;4305372;33;33520;-75
2022/05/13 09:12:10;;;;;;;3.55;2.90;;;;;;;26.44;46.25;99498.66;4303469;33;34967;-80
2022/05/13 09:14:57;;;;;;;5.62;1.90;;;;;;;26.80;46.19;99504.03;4305899;33;35190;-74
2022/05/13 09:17:41;;;;;;;5.25;2.28;;;;;;;26.45;47.55;99502.16;4319530;33;34563;-74
2022/05/13 09:20:19;;;;;;;6.15;1.92;;;;;;;27.22;45.93;99509.75;4309779;33;33561;-74
2022/05/13 09:22:52;;;;;;;3.83;2.37;;;;;;;27.32;45.67;99505.44;4292200;33;34842;-72
2022/05/13 09:25:47;;;;;;;12.13;2.15;;;;;;;27.28;45.20;99495.91;4314368;33;35115;-72
2022/05/13 09:28:15;;;;;;;2.50;1.67;;;;;;;26.27;44.20;99504.38;4319257;33;34462;-73
2022/05/13 09:30:47;;;;;;;4.25;1.73;;;;;;;25.95;44.07;99501.38;4311298;33;195261;-92
2022/05/13 09:33:30;;;;;;;7.00;1.87;;;;;;;26.11;45.42;99496.63;4306602;33;33726;-71
2022/05/13 09:36:00;;;;;;;3.00;1.95;;;;;;;26.19;46.35;99509.41;4308848;33;35981;-72
2022/05/13 09:39:23;;;;;;;4.43;2.03;;;;;;;26.32;45.36;99499.56;4308830;33;34306;-74
2022/05/13 09:41:52;;;;;;;4.95;2.83;;;;;;;26.08;46.68;99499.53;4315302;33;31792;-75
2022/05/13 09:44:26;;;;;;;4.10;1.70;;;;;;;26.50;46.89;99508.00;4292418;33;33922;-75
2022/05/13 09:47:24;;;;;;;2.97;2.00;;;;;;;25.90;50.77;99510.53;4296736;33;34269;-73
2022/05/13 09:50:26;;;;;;;2.58;1.90;;;;;;;26.15;46.52;99510.59;4304716;33;34621;-74
2022/05/13 09:53:10;;;;;;;2.80;1.50;;;;;;;26.58;49.98;99508.31;4305001;33;33500;-74
2022/05/13 09:55:49;;;;;;;4.93;2.10;;;;;;;26.64;47.05;99504.34;4303856;33;32837;-74
2022/05/13 09:58:26;;;;;;;2.40;1.87;;;;;;;27.59;45.88;99512.25;4304688;33;35091;-76
2022/05/13 10:01:00;;;;;;;3.33;2.05;;;;;;;27.01;45.97;99507.75;4305054;33;34506;-78
2022/05/13 10:03:38;;;;;;;3.33;1.83;;;;;;;26.80;45.74;99504.87;4304883;33;33357;-76
2022/05/13 10:06:17;;;;;;;2.87;1.75;;;;;;;26.98;48.27;99501.78;4304844;33;33842;-75
2022/05/13 10:13:57;;;;;;;4.65;1.85;;;;;;;27.37;47.23;99492.56;4304878;33;35926;-75
2022/05/13 10:15:14;;;;;;;3.62;1.77;;;;;;;28.08;45.24;99492.28;4304562;33;33715;-77
2022/05/13 10:17:51;;;;;;;5.12;2.20;;;;;;;28.22;45.31;99490.31;4304321;33;32847;-77
2022/05/13 10:20:34;;;;;;;3.20;1.80;;;;;;;28.26;44.64;99499.81;4281788;33;35290;-76
2022/05/13 10:23:11;;;;;;;6.50;2.33;;;;;;;28.05;43.75;99487.19;4291819;33;34540;-76
2022/05/13 10:25:56;;;;;;;2.87;1.75;;;;;;;27.92;47.22;99486.47;4304709;33;33396;-75
2022/05/13 10:28:36;;;;;;;3.08;1.87;;;;;;;28.29;42.34;99491.50;4292102;33;33920;-76
2022/05/13 10:31:29;;;;;;;3.22;2.03;;;;;;;27.45;45.99;99489.25;4304500;33;36041;-75
2022/05/13 10:34:21;;;;;;;3.60;1.92;;;;;;;27.77;45.67;99485.84;4303457;33;34319;-75
2022/05/13 10:37:16;;;;;;;5.45;1.98;;;;;;;27.32;44.65;99486.72;4304637;33;34445;-76
2022/05/13 10:39:54;;;;;;;4.00;2.00;;;;;;;27.87;42.38;99484.16;4303210;33;33893;-76
2022/05/13 10:42:46;;;;;;;2.17;1.70;;;;;;;28.42;44.36;99484.16;4303419;33;36037;-76
2022/05/13 10:45:25;;;;;;;3.83;1.85;;;;;;;28.26;43.86;99489.09;4304484;33;34134;-76
2022/05/13 10:48:16;;;;;;;3.50;1.90;;;;;;;28.12;44.68;99472.31;4303299;33;33185;-76
2022/05/13 10:51:21;;;;;;;5.00;2.20;;;;;;;28.73;43.03;99477.13;4303396;33;34054;-76
2022/05/13 10:54:12;;;;;;;2.70;1.67;;;;;;;28.75;41.29;99468.97;4288269;33;35994;-76
2022/05/13 10:57:19;;;;;;;2.53;1.62;;;;;;;27.86;45.49;99474.41;4304459;33;34236;-77
2022/05/13 11:00:15;;;;;;;4.32;2.30;;;;;;;28.31;41.84;99470.81;4304378;33;33515;-76
2022/05/13 11:03:02;;;;;;;3.67;2.05;;;;;;;27.54;43.00;99468.97;4291104;33;34090;-76
2022/05/13 11:05:59;;;;;;;2.67;1.98;;;;;;;27.73;42.32;99471.88;4304028;33;35914;-75
2022/05/13 11:08:49;;;;;;;2.25;1.60;;;;;;;26.76;44.41;99475.87;4304260;33;35338;-78
2022/05/13 11:11:23;;;;;;;5.28;2.30;;;;;;;27.43;44.82;99472.50;4303137;33;33492;-77
2022/05/13 11:14:14;;;;;;;3.45;2.12;;;;;;;27.91;44.07;99471.41;4304352;33;33720;-75
2022/05/13 11:17:14;;;;;;;5.05;1.80;;;;;;;27.31;44.90;99460.94;4304200;33;35085;-75
2022/05/13 11:20:11;;;;;;;2.45;1.60;;;;;;;27.45;42.94;99462.53;4304206;33;33421;-75
2022/05/13 11:23:05;;;;;;;6.72;1.75;;;;;;;27.97;42.22;99454.81;4303940;33;33550;-76
2022/05/13 11:26:10;;;;;;;3.28;1.80;;;;;;;27.48;42.15;99456.06;4303974;33;32667;-77
2022/05/13 11:29:09;;;;;;;4.90;1.80;;;;;;;28.00;42.21;99457.25;4303014;33;35818;-77
2022/05/13 11:31:58;;;;;;;5.53;2.10;;;;;;;28.40;41.92;99459.34;4291619;33;34210;-75
2022/05/13 11:34:58;;;;;;;5.45;2.00;;;;;;;28.50;42.54;99460.28;4303946;33;34329;-76
2022/05/13 11:37:32;;;;;;;2.47;1.83;;;;;;;28.17;41.67;99466.59;4302761;33;34827;-76
2022/05/13 11:40:22;;;;;;;5.12;1.83;;;;;;;28.55;42.07;99460.78;4308258;33;35182;-78
2022/05/13 11:43:20;;;;;;;4.60;2.05;;;;;;;28.40;42.86;99453.97;4317255;33;33161;-76
2022/05/13 11:45:55;;;;;;;5.05;1.85;;;;;;;27.82;42.43;99458.75;4318255;33;33451;-76
2022/05/13 11:48:30;;;;;;;2.53;1.85;;;;;;;27.32;46.08;99446.59;4318348;33;34678;-76
2022/05/13 11:51:16;;;;;;;3.90;2.00;;;;;;;27.45;43.51;99441.12;4318613;33;35040;-75
2022/05/13 11:53:55;;;;;;;2.83;1.80;;;;;;;27.67;43.26;99450.09;4330907;33;34379;-76
2022/05/13 11:56:31;;;;;;;3.37;2.20;;;;;;;28.21;44.15;99448.44;4313329;33;34279;-77
2022/05/13 11:59:12;;;;;;;2.75;1.90;;;;;;;27.78;44.92;99448.28;4305693;33;33711;-74
2022/05/13 12:01:48;;;;;;;4.07;2.40;;;;;;;27.75;42.92;99456.53;4316319;33;35062;-76
2022/05/13 12:04:31;;;;;;;4.25;2.00;;;;;;;27.55;43.08;99459.97;4305696;33;34530;-73
2022/05/13 12:07:29;;;;;;;3.10;1.80;;;;;;;27.34;43.54;99447.31;4305924;33;33580;-76
2022/05/13 12:10:04;;;;;;;4.10;1.90;;;;;;;27.89;41.83;99457.25;4316323;33;34042;-75
2022/05/13 12:12:43;;;;;;;2.95;1.92;;;;;;;27.17;43.96;99459.28;4304327;33;35118;-77
2022/05/13 12:15:30;;;;;;;2.97;2.00;;;;;;;27.16;43.91;99456.75;4304526;33;33346;-77
2022/05/13 12:18:21;;;;;;;3.25;1.90;;;;;;;26.64;46.83;99456.25;4305593;33;34333;-75
2022/05/13 12:21:47;;;;;;;5.03;1.90;;;;;;;26.72;44.07;99461.88;4305661;33;34763;-78
2022/05/13 12:24:58;;;;;;;4.72;2.05;;;;;;;26.35;44.27;99458.41;4303345;33;35037;-75
2022/05/13 12:27:35;;;;;;;8.23;2.08;;;;;;;26.15;45.28;99457.22;4304283;33;35205;-77
2022/05/13 12:30:24;;;;;;;2.47;1.85;;;;;;;26.00;46.23;99456.56;4315839;33;33666;-76
2022/05/13 12:33:29;;;;;;;4.18;2.00;;;;;;;25.38;45.81;99460.91;4305511;33;34765;-76
2022/05/13 12:39:21;;;;;;;3.37;1.80;;;;;;;25.06;46.92;99445.31;4314138;33;34464;-75
2022/05/13 12:42:09;;;;;;;2.33;1.50;;;;;;;24.68;46.75;99445.28;4316034;33;33642;-75
2022/05/13 12:44:58;;;;;;;7.53;2.03;;;;;;;25.35;43.88;99440.62;4315923;33;33963;-76
2022/05/13 12:48:09;;;;;;;3.60;1.73;;;;;;;24.60;44.08;99436.00;4315714;33;35038;-75
2022/05/13 12:50:49;;;;;;;3.03;1.37;;;;;;;25.39;42.34;99441.28;4305290;33;34601;-78
2022/05/13 12:53:31;;;;;;;7.47;1.77;;;;;;;25.03;43.94;99439.34;4313479;33;32363;-79
2022/05/13 12:56:09;;;;;;;4.20;1.77;;;;;;;25.26;44.05;99433.28;4305058;33;34789;-75
2022/05/13 12:58:41;;;;;;;3.37;1.67;;;;;;;24.42;45.63;99435.41;4305131;33;35106;-82
2022/05/13 13:01:14;;;;;;;3.25;1.50;;;;;;;24.64;44.51;99433.97;4303461;33;33777;-78
2022/05/13 13:03:47;;;;;;;2.55;1.55;;;;;;;25.01;44.83;99434.12;4305238;33;33589;-75
2022/05/13 13:06:44;;;;;;;2.25;1.40;;;;;;;24.96;46.18;99429.09;4305089;33;34059;-75
2022/05/13 13:09:22;;;;;;;3.33;1.70;;;;;;;24.60;46.99;99432.47;4305058;33;35861;-76
2022/05/13 13:12:16;;;;;;;4.65;1.55;;;;;;;24.84;45.83;99429.09;4303987;33;34152;-76
2022/05/13 13:15:16;;;;;;;2.35;1.50;;;;;;;25.13;44.54;99425.28;4305132;33;33529;-79
2022/05/13 13:17:59;;;;;;;3.45;1.75;;;;;;;23.93;46.93;99427.97;4315839;33;33971;-75
2022/05/13 13:20:51;;;;;;;3.05;1.62;;;;;;;23.93;48.12;99427.09;4304885;33;35552;-74
2022/05/13 13:23:46;;;;;;;5.68;2.47;;;;;;;23.88;48.02;99423.88;4315505;33;34665;-75
2022/05/13 13:26:18;;;;;;;4.15;1.85;;;;;;;23.51;50.26;99424.41;4304812;33;34483;-76
2022/05/13 13:28:55;;;;;;;6.45;1.90;;;;;;;23.63;50.05;99422.75;4304274;33;33650;-76
2022/05/13 13:31:29;;;;;;;3.40;1.90;;;;;;;23.25;51.84;99410.09;4305032;33;36039;-75
2022/05/13 13:34:02;;;;;;;2.42;1.60;;;;;;;24.14;50.29;99404.44;4315452;33;35212;-76
2022/05/13 13:36:41;;;;;;;3.30;1.80;;;;;;;23.81;51.34;99402.19;4315598;33;33402;-75
2022/05/13 13:39:37;;;;;;;2.40;1.50;;;;;;;24.49;47.75;99403.03;4302812;33;32420;-75